• Join FlightAware (Why Join?)
  • Login
  • US Flag 
09:13AM EDT


 

Airport Tracker/Info


-or-


 

Live Flight TrackerFlight Track Log ✈ PDT4207 ✈ 05-Nov-2013 ✈ KPHL - KBGM

Flight Track Log - Related Links

Times and Time Zones

All times are in EST time to prevent confusion due to time zone crossing. See the PDT4207 flight status page for this flight to view local times or setup timezone preferences in your user account.

Time Position Orientation Groundspeed Altitude Reporting Facility
EST Latitude Longitude Course Direction KTS MPH feet Rate Location/Type
09:41PM 39.8833 -75.2167 349° North 113 130 500  Level Philadelphia TRACON
09:42PM 39.9167 -75.1667 49° Northeast 157 181 2,100 1,320 Climbing Philadelphia TRACON
09:43PM 39.9500 -75.1333 37° Northeast 151 174 3,300 960 Climbing Philadelphia TRACON
09:44PM 40.1098 -75.3136 348° North  Level Estimated
09:44PM 39.9833 -75.1500 339° North 173 199 4,000  Level Philadelphia TRACON
09:45PM 40.1901 -75.3300 351° North  Level FlightAware Approximate
09:45PM 40.0333 -75.1667 346° North 211 243 4,000  Level Philadelphia TRACON
09:46PM 40.2705 -75.3464 351° North  Level FlightAware Approximate
09:46PM 40.1000 -75.2000 339° North 222 255 4,000  Level Philadelphia TRACON
09:47PM 40.3495 -75.3715 349° North  Level Estimated
09:47PM 40.1500 -75.2333 333° Northwest 227 261 4,000  Level Philadelphia TRACON
09:49PM 40.2425 -75.2794 339° North  Level FlightAware Approximate
09:56PM 40.7965 -75.4500 North  Level FlightAware Approximate
09:57PM 40.8778 -75.4500 North  Level FlightAware Approximate
09:58PM 40.9592 -75.4500 North  Level FlightAware Approximate
09:59PM 41.0405 -75.4505 357° North  Level FlightAware Approximate
10:00PM 41.1217 -75.4568 357° North  Level FlightAware Approximate
10:01PM 41.2029 -75.4630 357° North  Level FlightAware Approximate
10:02PM 41.2841 -75.4667 North  Level FlightAware Approximate
10:03PM 41.3654 -75.4667 North  Level FlightAware Approximate
10:04PM 41.4468 -75.4667 North  Level FlightAware Approximate
10:05PM 41.5159 -75.5157 323° Northwest  Level FlightAware Approximate
10:06PM 41.5810 -75.5808 323° Northwest  Level FlightAware Approximate
10:07PM 41.6461 -75.6459 323° Northwest  Level FlightAware Approximate
10:08PM 41.7112 -75.7112 323° Northwest  Level FlightAware Approximate
10:09PM 41.7777 -75.7739 325° Northwest  Level FlightAware Approximate
10:10PM 41.8444 -75.8365 325° Northwest  Level FlightAware Approximate
10:11PM 41.9109 -75.8992 325° Northwest  Level FlightAware Approximate
10:12PM 41.9775 -75.9621 325° Northwest  Level FlightAware Approximate
10:13PM 42.0432 -76.0265 323° Northwest  Level FlightAware Approximate
10:14PM 42.1085 -76.0918 323° Northwest  Level FlightAware Approximate
10:15PM 42.1540 -76.0960 37° Northeast  Level FlightAware Approximate
10:16PM 42.1978 -76.0055 62° Northeast  Level FlightAware Approximate
10:17PM 42.2000 -75.9667 90° East  Level FlightAware Approximate
10:18PM 42.2084 -75.9796 90° East  Level Estimated
10:19PM 42.2084 -75.9796 90° East  Level Estimated
10:20PM 42.2084 -75.9796 90° East  Level Estimated
10:21PM 42.2084 -75.9796 90° East  Level Estimated
10:22PM 42.2084 -75.9796 90° East  Level Estimated
10:23PM 42.2084 -75.9796 90° East  Level Estimated
10:24PM 42.2084 -75.9796 90° East  Level Estimated
10:25PM 42.2084 -75.9796 90° East  Level Estimated